Strona główna
METAR-TAF:

METAR-TAF

Lotnisko :

Port lotniczy Arvidsjaur

Arvidsjaur, Szwecja

Szerokość geograficzna: 65-35-25N, Długość geograficzna: 019-16-55E, wysokość: 379 m

Aktualna obserwacja pogody

Raport powstał 9 minut temu, godzina 19:20 UTC
Wiatr 5 kt od zachodnio-północny zachód
Temperatura -20°C
Wilgotność 84%
Ciśnienie 1001 hPa
Widzialność 10 km lub więcej

METAR: ESNX 251920Z AUTO 30005KT 9999 NCD M20/M22 Q1001

czas: 20:29 (19:29 UTC)

Prognoza

Raport powstał 1 godzina i 59 minut temu, godzina 17:30 UTC
Prognoza ważna od 25 godzina 18 UTC do 25 godzina 21 UTC
Wiatr 4 kt od zachodnio-północny zachód
Widzialność 10 km lub więcej
Brak chmur poniżej 1500 m i brak chmur cumulonimbus

TAF: ESNX 251730Z 2518/2521 30004KT CAVOK

Obserwacja i prognoza pogody dla ponad 4000 lotnisk (raport METAR i TAF).

Dostępne stacje oznaczono żółtymi i czerwonymi punktami na mapie.

Najedź kursorem aby zobaczyć nazwę stacji.

Kliknij aby zobaczyć obserwacje i prognozy pogody.

Aby zmienić mapę: kliknij na zielony przycisk z czarnym krzyżykiem, aby powiększyć; na zielony przycisk z myślnikiem, aby pomniejszyć; na zielone strzałki, aby przejść do map sąsiednich.


METAR-TAF: